Terminal Aerodrome Forecast
Issued by NWS Wilmington, OH

Current Version | Previous Version | Graphics & Text | Print | Product List | Glossary On
Versions: 1 2 3 4 5 6 7 8 9 10 11 12 13 14 15 16 17 18 19
000
FTUS41 KILN 231100
TAFDAY
TAF
KDAY 231135Z 2312/2412 16009KT P6SM OVC008
     FM232300 12005KT 5SM BR VCSH OVC006
     FM240900 08004KT 5SM -SHRA BR OVC005=

USA.gov is the U.S. government's official web portal to all federal, state and local government web resources and services.